Stations météo

Publicité
Apt, France (7657): Température de l'air & dewpoint: 03.08.2020 07:00:00 - 09.08.2020 07:00:00 (CEST)Apt, France (7657): Vitesse du vent & gusts: 03.08.2020 07:00:00 - 09.08.2020 07:00:00 (CEST)Apt, France (7657): Direction du vent: 03.08.2020 07:00:00 - 09.08.2020 07:00:00 (CEST)Apt, France (7657): Quantités de précipitations: 03.08.2020 07:00:00 - 09.08.2020 07:00:00 (CEST)
Date & Time tt [°C] td [°C] ff [km/h] ff [knt] fx [km/h] fx [knt] dd rr [mm]
09.08.2020 07:00:00 - - - - - - - -
09.08.2020 06:00:00 - - - - - - - -
09.08.2020 05:00:00 10,9 8,8 0 0 7 4 N 0,0
09.08.2020 04:00:00 11,3 9,6 0 0 5 3 N 0,0
09.08.2020 03:00:00 13,1 10,5 3 2 6 3 W 0,0
09.08.2020 02:00:00 13,2 10,4 2 1 8 4 W 0,0
09.08.2020 01:00:00 14,1 11,4 0 0 4 2 N 0,0
09.08.2020 00:00:00 15,7 11,7 3 1 8 4 SSW 0,0
08.08.2020 23:00:00 17,1 12,8 2 1 8 4 WNW 0,0
08.08.2020 22:00:00 20,6 13,8 2 1 7 4 WSW 0,0
08.08.2020 21:00:00 24,0 13,2 6 4 33 18 E 0,0
08.08.2020 20:00:00 28,6 9,8 21 11 34 19 W 0,0
08.08.2020 19:00:00 30,5 7,6 19 10 32 18 WSW 0,0
08.08.2020 18:00:00 31,7 9,3 19 10 33 18 WSW 0,0
08.08.2020 17:00:00 32,4 9,2 17 9 39 21 W 0,0
08.08.2020 16:00:00 32,2 9,7 22 12 39 21 WSW 0,0
08.08.2020 15:00:00 32,4 9,2 17 9 36 19 W 0,0
08.08.2020 14:00:00 32,5 9,9 12 6 35 19 NW 0,0
08.08.2020 13:00:00 31,5 9,7 16 8 29 16 NE 0,0
08.08.2020 12:00:00 30,9 8,6 5 3 17 9 W 0,0
08.08.2020 11:00:00 29,7 8,1 8 4 19 10 NNE 0,0
08.08.2020 10:00:00 27,3 8,7 4 2 13 7 SE 0,0
08.08.2020 09:00:00 23,4 9,8 0 0 5 3 N 0,0
08.08.2020 08:00:00 16,6 9,3 0 0 5 3 N 0,0
08.08.2020 07:00:00 10,1 6,6 2 1 6 3 WSW 0,0
08.08.2020 06:00:00 10,4 6,3 2 1 6 4 SW 0,0
08.08.2020 05:00:00 10,8 7,1 3 2 6 3 W 0,0
08.08.2020 04:00:00 9,7 6,8 3 1 6 4 WNW 0,0
08.08.2020 03:00:00 10,6 6,7 3 2 6 3 W 0,0
08.08.2020 02:00:00 12,8 7,5 3 1 6 3 W 0,0
08.08.2020 01:00:00 12,6 7,1 3 2 12 6 SW 0,0
08.08.2020 00:00:00 14,7 7,3 6 4 10 6 SSE 0,0
07.08.2020 23:00:00 16,2 7,4 0 0 10 5 N 0,0
07.08.2020 22:00:00 20,8 7,4 9 5 23 13 SSW 0,0
07.08.2020 21:00:00 22,8 7,3 13 7 27 15 WSW 0,0
07.08.2020 20:00:00 26,5 8,0 13 7 28 15 W 0,0
07.08.2020 19:00:00 28,4 8,6 17 9 35 19 W 0,0
07.08.2020 18:00:00 29,9 8,3 19 11 44 24 W 0,0
07.08.2020 17:00:00 30,4 6,9 24 13 41 22 WSW 0,0
07.08.2020 16:00:00 30,9 8,0 22 12 39 21 WSW 0,0
07.08.2020 15:00:00 31,0 8,7 20 11 36 19 WSW 0,0
07.08.2020 14:00:00 30,7 7,2 14 7 36 20 WSW 0,0
07.08.2020 13:00:00 29,4 7,3 11 6 26 14 SSW 0,0
07.08.2020 12:00:00 28,4 7,6 7 4 32 17 ENE 0,0
07.08.2020 11:00:00 27,1 8,5 8 5 20 11 ESE 0,0
07.08.2020 10:00:00 25,4 8,4 10 5 19 10 ESE 0,0
07.08.2020 09:00:00 22,4 10,2 3 2 7 4 E 0,0
07.08.2020 08:00:00 15,2 10,0 0 0 8 4 N 0,0
07.08.2020 07:00:00 8,5 6,6 0 0 4 2 N 0,0
07.08.2020 06:00:00 8,1 6,2 0 0 6 3 N 0,0
07.08.2020 05:00:00 10,0 7,1 3 1 6 3 W 0,0
07.08.2020 04:00:00 9,8 7,4 0 0 4 2 N 0,0
07.08.2020 03:00:00 11,0 7,5 3 2 10 6 WSW 0,0
07.08.2020 02:00:00 12,3 8,2 4 2 8 4 W 0,0
07.08.2020 01:00:00 12,8 8,9 2 1 8 5 NW 0,0
07.08.2020 00:00:00 13,9 10,5 3 2 8 4 WNW 0,0
06.08.2020 23:00:00 16,6 10,7 3 2 16 8 W 0,0
06.08.2020 22:00:00 21,0 11,6 13 7 20 11 NW 0,0
06.08.2020 21:00:00 23,1 8,0 9 5 19 11 NW 0,0
06.08.2020 20:00:00 26,8 7,8 11 6 29 16 W 0,0
06.08.2020 19:00:00 28,0 8,8 17 9 35 19 W 0,0
06.08.2020 18:00:00 28,9 9,1 17 9 35 19 W 0,0
06.08.2020 17:00:00 29,5 10,1 12 7 32 17 W 0,0
06.08.2020 16:00:00 29,7 10,3 18 10 41 22 WSW 0,0
06.08.2020 15:00:00 29,7 9,2 12 6 29 15 WSW 0,0
06.08.2020 14:00:00 29,5 8,0 4 2 24 13 W 0,0
06.08.2020 13:00:00 28,1 8,4 6 4 26 14 SSE 0,0
06.08.2020 12:00:00 27,1 9,4 7 4 22 12 E 0,0
06.08.2020 11:00:00 25,1 9,0 10 6 22 12 SE 0,0
06.08.2020 10:00:00 24,3 9,1 9 5 21 11 SE 0,0
06.08.2020 09:00:00 21,5 9,1 4 2 7 4 N 0,0
06.08.2020 08:00:00 14,9 9,3 0 0 4 2 N 0,0
06.08.2020 07:00:00 7,4 5,7 0 0 8 4 N 0,0
06.08.2020 06:00:00 6,8 4,8 2 1 6 3 NE 0,0
06.08.2020 05:00:00 6,9 5,2 0 0 6 3 N 0,0
06.08.2020 04:00:00 7,4 4,9 2 1 8 5 SW 0,0
06.08.2020 03:00:00 8,1 5,2 2 1 6 3 SSE 0,0
06.08.2020 02:00:00 9,5 5,5 4 2 7 4 W 0,0
06.08.2020 01:00:00 10,7 5,9 3 2 8 5 W 0,0
06.08.2020 00:00:00 12,5 6,5 5 3 11 6 S 0,0
05.08.2020 23:00:00 15,7 6,4 7 4 13 7 NNW 0,0
05.08.2020 22:00:00 18,0 6,2 5 3 14 8 W 0,0
05.08.2020 21:00:00 21,0 6,5 8 5 28 15 W 0,0
05.08.2020 20:00:00 23,8 6,6 13 7 29 16 W 0,0
05.08.2020 19:00:00 25,0 6,2 16 8 32 17 W 0,0
05.08.2020 18:00:00 26,1 5,6 17 9 35 19 W 0,0
05.08.2020 17:00:00 26,7 6,1 18 10 41 22 W 0,0
05.08.2020 16:00:00 26,8 5,7 19 10 43 23 WSW 0,0
05.08.2020 15:00:00 26,9 6,3 10 5 35 19 WSW 0,0
05.08.2020 14:00:00 26,3 4,7 16 9 37 20 SW 0,0
05.08.2020 13:00:00 26,1 4,5 17 9 38 20 SW 0,0
05.08.2020 12:00:00 25,5 5,6 14 7 31 17 SW 0,0
05.08.2020 11:00:00 23,8 7,0 11 6 26 14 E 0,0
05.08.2020 10:00:00 22,8 6,9 5 3 13 7 E 0,0
05.08.2020 09:00:00 20,6 6,5 3 2 6 4 N 0,0
05.08.2020 08:00:00 15,3 7,6 2 1 8 4 N 0,0
05.08.2020 07:00:00 9,2 5,6 5 3 9 5 W 0,0
05.08.2020 06:00:00 9,4 4,8 3 1 14 8 W 0,0
05.08.2020 05:00:00 10,1 4,9 3 2 17 9 WNW 0,0
05.08.2020 04:00:00 11,7 5,6 13 7 19 11 W 0,0
05.08.2020 03:00:00 13,0 5,6 12 7 22 12 W 0,0
05.08.2020 02:00:00 13,3 5,7 13 7 21 12 W 0,0
05.08.2020 01:00:00 15,0 5,8 14 7 24 13 WNW 0,0
05.08.2020 00:00:00 15,4 5,9 11 6 29 15 NW 0,0
04.08.2020 23:00:00 16,2 5,5 14 8 35 19 NNW 0,0
04.08.2020 22:00:00 17,1 5,4 18 10 51 28 NNW 0,0
04.08.2020 21:00:00 18,0 5,2 20 11 40 21 NNW 0,0
04.08.2020 20:00:00 19,9 5,9 21 11 53 29 NNW 0,0
04.08.2020 19:00:00 21,1 5,8 33 18 67 36 N 0,0
04.08.2020 18:00:00 22,0 6,2 37 20 80 43 N 0,0
04.08.2020 17:00:00 23,1 6,8 34 18 61 33 NNW 0,0
04.08.2020 16:00:00 23,6 6,8 24 13 49 26 NNW 0,0
04.08.2020 15:00:00 22,9 6,2 31 17 55 30 NNW 0,0
04.08.2020 14:00:00 22,5 5,4 32 18 56 30 NNW 0,0
04.08.2020 13:00:00 21,5 5,8 28 15 59 32 NNW 0,0
04.08.2020 12:00:00 20,3 5,1 34 19 61 33 NNW 0,0
04.08.2020 11:00:00 18,9 4,6 31 17 65 35 NNW 0,0
04.08.2020 10:00:00 17,3 4,3 36 19 65 35 NNW 0,0
04.08.2020 09:00:00 15,8 5,1 29 16 56 30 NNW 0,0
04.08.2020 08:00:00 14,3 5,1 39 21 61 33 NNW 0,0
04.08.2020 07:00:00 13,1 4,8 33 18 61 33 NW 0,0
04.08.2020 06:00:00 12,4 5,1 35 19 56 31 NNW 0,0
04.08.2020 05:00:00 12,4 4,6 32 17 63 34 NNW 0,0
04.08.2020 04:00:00 13,0 4,2 36 19 68 37 NNW 0,0
04.08.2020 03:00:00 13,1 4,3 34 19 62 33 NW 0,0
04.08.2020 02:00:00 13,6 4,7 30 16 53 29 NW 0,0
04.08.2020 01:00:00 13,8 5,4 29 15 51 28 NW 0,0
04.08.2020 00:00:00 13,8 5,7 27 15 61 33 NW 0,0
03.08.2020 23:00:00 14,1 6,0 32 17 63 34 NNW 0,0
03.08.2020 22:00:00 14,7 6,5 34 18 65 35 NW 0,0
03.08.2020 21:00:00 16,2 6,0 31 17 63 34 NW 0,0
03.08.2020 20:00:00 18,1 5,3 38 21 71 38 NNW 0,0
03.08.2020 19:00:00 20,5 5,3 37 20 66 35 NNW 0,0
03.08.2020 18:00:00 21,5 6,2 36 20 67 36 NNW 0,0
03.08.2020 17:00:00 22,5 5,8 36 19 73 39 NW 0,0
03.08.2020 16:00:00 22,9 6,6 36 19 62 33 NW 0,0
03.08.2020 15:00:00 22,3 8,4 37 20 63 34 NW 0,0
03.08.2020 14:00:00 23,4 9,4 29 16 55 30 NW 0,0
03.08.2020 13:00:00 23,0 11,1 26 14 47 26 NNW 0,0
03.08.2020 12:00:00 22,1 10,6 24 13 49 26 NW 0,0
03.08.2020 11:00:00 19,5 10,8 26 14 44 24 NW 0,0
03.08.2020 10:00:00 18,6 11,4 24 13 40 22 NW 0,0
03.08.2020 09:00:00 17,7 11,7 20 11 35 19 NW 0,0
03.08.2020 08:00:00 17,0 12,3 16 9 42 23 NW 0,0
03.08.2020 07:00:00 17,0 12,3 20 11 39 21 NW 0,0

tt = Température de l'air
td = dewpoint
ff = Vitesse du vent
fx = gusts
dd = Direction du vent
rr = Quantités de précipitations

stations d'obs. à proximité